createdAt,value
2023-04-16T00:01:56.403Z,58.00
2023-04-16T00:04:23.320Z,58.66
2023-04-16T00:06:53.474Z,59.09
2023-04-16T00:09:20.348Z,59.88
2023-04-16T00:11:47.312Z,59.85
2023-04-16T00:14:14.517Z,57.94
2023-04-16T00:16:43.368Z,58.43
2023-04-16T00:19:10.639Z,59.56
2023-04-16T00:21:40.151Z,58.66
2023-04-16T00:24:06.840Z,58.45
2023-04-16T00:26:33.559Z,58.87
2023-04-16T00:29:02.533Z,60.18
2023-04-16T00:31:30.789Z,59.56
2023-04-16T00:33:59.297Z,60.50
2023-04-16T00:36:28.445Z,61.74
2023-04-16T00:38:56.050Z,60.16
2023-04-16T00:41:24.273Z,60.18
2023-04-16T00:43:51.567Z,60.73
2023-04-16T00:46:22.246Z,59.61
2023-04-16T00:48:51.109Z,59.16
2023-04-16T00:51:20.420Z,58.99
2023-04-16T00:53:47.701Z,60.02
2023-04-16T00:56:18.029Z,60.97
2023-04-16T00:58:45.650Z,59.00
2023-04-16T01:01:14.504Z,60.99
2023-04-16T01:03:48.137Z,58.81
2023-04-16T01:06:17.574Z,60.57
2023-04-16T01:08:45.121Z,59.43
2023-04-16T01:11:12.200Z,59.22
2023-04-16T01:13:39.833Z,60.17
2023-04-16T01:16:09.536Z,59.63
2023-04-16T01:18:37.742Z,59.93
2023-04-16T01:21:05.489Z,58.37
2023-04-16T01:23:34.755Z,60.17
2023-04-16T01:26:05.066Z,59.34
2023-04-16T01:28:32.004Z,59.82
2023-04-16T01:30:58.699Z,60.16
2023-04-16T01:33:48.663Z,60.05
2023-04-16T01:36:17.045Z,59.76
2023-04-16T01:38:47.323Z,58.16
2023-04-16T01:41:14.554Z,59.50
2023-04-16T01:43:44.285Z,58.75
2023-04-16T01:46:32.039Z,59.86
2023-04-16T01:48:59.054Z,59.34
2023-04-16T01:51:25.955Z,59.11
2023-04-16T01:53:52.650Z,58.08
2023-04-16T01:56:19.367Z,58.72
2023-04-16T01:58:47.433Z,58.73
2023-04-16T02:01:16.184Z,59.85
2023-04-16T02:03:44.172Z,60.26
2023-04-16T02:06:11.021Z,57.76
2023-04-16T02:08:37.792Z,58.99
2023-04-16T02:11:04.424Z,59.57
2023-04-16T02:13:31.374Z,57.31
2023-04-16T02:15:58.311Z,57.86
2023-04-16T02:18:46.205Z,58.13
2023-04-16T02:21:14.978Z,58.45
2023-04-16T02:23:42.610Z,58.23
2023-04-16T02:26:09.449Z,57.64
2023-04-16T02:28:37.643Z,57.64
2023-04-16T02:31:04.888Z,57.38
2023-04-16T02:33:39.818Z,58.32
2023-04-16T02:36:07.286Z,57.37
2023-04-16T02:38:33.942Z,58.37
2023-04-16T02:41:01.221Z,58.11
2023-04-16T02:43:28.526Z,58.42
2023-04-16T02:45:59.478Z,57.96
2023-04-16T02:48:28.523Z,59.10
2023-04-16T02:50:55.276Z,58.72
2023-04-16T02:53:21.999Z,61.26
2023-04-16T02:55:52.958Z,60.34
2023-04-16T02:58:20.937Z,60.36
2023-04-16T03:00:47.975Z,60.56
2023-04-16T03:03:16.772Z,61.86
2023-04-16T03:05:44.162Z,61.80
2023-04-16T03:08:11.269Z,61.07
2023-04-16T03:10:37.930Z,59.45
2023-04-16T03:13:05.028Z,60.68
2023-04-16T03:15:31.906Z,62.06
2023-04-16T03:17:59.301Z,59.74
2023-04-16T03:20:26.189Z,61.52
2023-04-16T03:22:53.349Z,61.16
2023-04-16T03:25:20.434Z,61.45
2023-04-16T03:27:47.049Z,62.40
2023-04-16T03:30:15.499Z,60.99
2023-04-16T03:32:44.111Z,60.56
2023-04-16T03:35:11.666Z,60.85
2023-04-16T03:37:39.063Z,60.39
2023-04-16T03:40:07.226Z,60.77
2023-04-16T03:42:34.328Z,59.70
2023-04-16T03:45:02.901Z,60.11
2023-04-16T03:47:30.435Z,59.02
2023-04-16T03:50:01.083Z,61.07
2023-04-16T03:52:28.390Z,60.00
2023-04-16T03:54:56.890Z,59.15
2023-04-16T03:57:30.074Z,58.20
2023-04-16T04:00:02.961Z,58.81
2023-04-16T04:02:41.283Z,58.43
2023-04-16T04:05:14.909Z,57.37
2023-04-16T04:07:42.416Z,58.37
2023-04-16T04:10:09.617Z,57.74
2023-04-16T04:12:39.596Z,59.96
2023-04-16T04:15:07.509Z,59.68
2023-04-16T04:17:34.122Z,59.34
2023-04-16T04:20:01.889Z,58.61
2023-04-16T04:22:31.788Z,60.20
2023-04-16T04:24:58.463Z,60.66
2023-04-16T04:27:27.365Z,58.14
2023-04-16T04:29:54.087Z,58.27
2023-04-16T04:32:22.081Z,59.60
2023-04-16T04:34:49.252Z,60.61
2023-04-16T04:37:15.966Z,60.21
2023-04-16T04:39:43.842Z,59.74
2023-04-16T04:42:11.564Z,59.75
2023-04-16T04:44:38.672Z,57.54
2023-04-16T04:47:05.406Z,58.37
2023-04-16T04:49:32.035Z,58.19
2023-04-16T04:51:58.623Z,60.19
2023-04-16T04:54:25.302Z,59.82
2023-04-16T04:56:53.444Z,57.10
2023-04-16T04:59:21.004Z,56.66
2023-04-16T05:01:47.877Z,58.63
2023-04-16T05:04:14.574Z,57.39
2023-04-16T05:06:41.517Z,56.82
2023-04-16T05:09:11.567Z,57.25
2023-04-16T05:11:43.195Z,57.07
2023-04-16T05:14:10.102Z,56.03
2023-04-16T05:16:37.765Z,58.11
2023-04-16T05:19:04.615Z,59.00
2023-04-16T05:21:34.170Z,58.22
2023-04-16T05:24:01.264Z,59.65
2023-04-16T05:26:28.051Z,58.61
2023-04-16T05:28:54.587Z,57.46
2023-04-16T05:31:21.434Z,58.28
2023-04-16T05:33:48.059Z,57.01
2023-04-16T05:36:14.659Z,58.56
2023-04-16T05:38:41.659Z,57.02
2023-04-16T05:41:08.259Z,57.81
2023-04-16T05:43:34.918Z,59.41
2023-04-16T05:46:01.470Z,57.09
2023-04-16T05:48:28.225Z,55.93
2023-04-16T05:50:55.123Z,55.65
2023-04-16T05:53:21.902Z,55.84
2023-04-16T05:55:48.565Z,56.10
2023-04-16T05:58:16.750Z,57.51
2023-04-16T06:00:43.319Z,57.78
2023-04-16T06:03:10.048Z,55.17
2023-04-16T06:05:36.808Z,55.60
2023-04-16T06:08:06.540Z,56.81
2023-04-16T06:10:33.080Z,54.89
2023-04-16T06:12:59.966Z,55.36
2023-04-16T06:15:26.520Z,55.18
2023-04-16T06:17:53.211Z,54.34
2023-04-16T06:20:21.539Z,54.74
2023-04-16T06:22:48.132Z,55.71
2023-04-16T06:25:16.865Z,54.99
2023-04-16T06:27:44.676Z,55.30
2023-04-16T06:30:13.112Z,57.85
2023-04-16T06:32:39.968Z,57.13
2023-04-16T06:35:07.042Z,54.88
2023-04-16T06:37:33.894Z,54.16
2023-04-16T06:40:00.931Z,57.33
2023-04-16T06:42:28.444Z,55.76
2023-04-16T06:44:54.981Z,55.78
2023-04-16T06:47:21.725Z,54.40
2023-04-16T06:49:48.696Z,55.08
2023-04-16T06:52:15.576Z,55.57
2023-04-16T06:54:42.187Z,57.87
2023-04-16T06:57:08.782Z,58.79
2023-04-16T06:59:35.303Z,57.80
2023-04-16T07:02:02.179Z,56.98
2023-04-16T07:04:28.877Z,55.02
2023-04-16T07:06:55.498Z,57.43
2023-04-16T07:09:22.026Z,56.19
2023-04-16T07:11:50.229Z,57.88
2023-04-16T07:14:17.166Z,57.71
2023-04-16T07:16:43.896Z,56.73
2023-04-16T07:19:10.953Z,56.44
2023-04-16T07:21:37.872Z,57.78
2023-04-16T07:24:04.568Z,55.75
2023-04-16T07:26:31.165Z,55.84
2023-04-16T07:28:57.632Z,55.04
2023-04-16T07:31:24.202Z,54.51
2023-04-16T07:33:51.005Z,53.84
2023-04-16T07:36:17.610Z,55.68
2023-04-16T07:38:44.200Z,55.59
2023-04-16T07:41:10.743Z,52.92
2023-04-16T07:43:37.463Z,54.16
2023-04-16T07:46:04.181Z,53.56
2023-04-16T07:48:31.062Z,53.43
2023-04-16T07:50:57.928Z,54.22
2023-04-16T07:53:24.506Z,53.52
2023-04-16T07:55:51.128Z,54.77
2023-04-16T07:58:17.765Z,56.24
2023-04-16T08:00:45.672Z,55.13
2023-04-16T08:03:13.021Z,54.39
2023-04-16T08:05:39.807Z,54.66
2023-04-16T08:08:06.437Z,54.85
2023-04-16T08:10:33.515Z,55.23
2023-04-16T08:13:03.196Z,55.12
2023-04-16T08:15:30.140Z,56.47
2023-04-16T08:17:57.092Z,56.14
2023-04-16T08:20:23.880Z,55.12
2023-04-16T08:22:50.516Z,54.69
2023-04-16T08:25:17.360Z,54.83
2023-04-16T08:27:43.931Z,56.37
2023-04-16T08:30:10.995Z,55.21
2023-04-16T08:32:37.952Z,54.44
2023-04-16T08:35:05.440Z,55.28
2023-04-16T08:37:31.984Z,55.06
2023-04-16T08:40:01.927Z,55.11
2023-04-16T08:42:36.981Z,52.90
2023-04-16T08:45:09.030Z,54.00
2023-04-16T08:47:39.602Z,55.48
2023-04-16T08:50:06.921Z,53.88
2023-04-16T08:52:37.750Z,52.37
2023-04-16T08:55:14.763Z,52.53
2023-04-16T08:57:50.547Z,54.35
2023-04-16T09:00:18.203Z,54.30
2023-04-16T09:02:45.437Z,55.64
2023-04-16T09:05:20.721Z,54.88
2023-04-16T09:07:51.242Z,53.83
2023-04-16T09:10:18.114Z,55.48
2023-04-16T09:12:44.866Z,56.42
2023-04-16T09:15:12.600Z,55.62
2023-04-16T09:17:40.064Z,55.36
2023-04-16T09:20:09.021Z,56.25
2023-04-16T09:22:36.717Z,55.93
2023-04-16T09:25:04.186Z,54.17
2023-04-16T09:27:31.856Z,54.73
2023-04-16T09:29:58.815Z,54.38
2023-04-16T09:32:27.340Z,54.78
2023-04-16T09:34:53.896Z,54.99
2023-04-16T09:37:20.566Z,57.27
2023-04-16T09:39:59.182Z,57.76
2023-04-16T09:42:28.079Z,57.40
2023-04-16T09:44:57.884Z,55.69
2023-04-16T09:47:39.155Z,56.40
2023-04-16T09:50:06.909Z,55.14
2023-04-16T09:52:36.866Z,55.36
2023-04-16T09:55:03.774Z,56.19
2023-04-16T09:57:30.555Z,55.81
2023-04-16T10:00:11.960Z,56.08
2023-04-16T10:02:42.553Z,55.01
2023-04-16T10:05:10.042Z,55.62
2023-04-16T10:07:37.508Z,56.47
2023-04-16T10:10:05.019Z,55.68
2023-04-16T10:12:33.005Z,55.03
2023-04-16T10:15:00.203Z,54.71
2023-04-16T10:17:32.452Z,54.97
2023-04-16T10:20:03.558Z,55.39
2023-04-16T10:22:30.329Z,53.50
2023-04-16T10:24:57.655Z,53.69
2023-04-16T10:27:26.633Z,53.85
2023-04-16T10:29:53.599Z,53.92
2023-04-16T10:32:21.915Z,54.92
2023-04-16T10:34:49.119Z,54.53
2023-04-16T10:37:18.058Z,53.72
2023-04-16T10:39:45.028Z,53.55
2023-04-16T10:42:13.068Z,52.56
2023-04-16T10:44:43.637Z,52.62
2023-04-16T10:47:13.216Z,52.61
2023-04-16T10:49:41.123Z,54.12
2023-04-16T10:52:17.265Z,53.30
2023-04-16T10:54:44.494Z,53.18
2023-04-16T10:57:17.809Z,52.88
2023-04-16T10:59:45.905Z,53.19
2023-04-16T11:02:21.294Z,52.65
2023-04-16T11:04:50.023Z,52.37
2023-04-16T11:07:21.711Z,52.26
2023-04-16T11:10:04.179Z,51.04
2023-04-16T11:12:39.200Z,52.98
2023-04-16T11:15:13.432Z,52.67
2023-04-16T11:17:41.459Z,53.19
2023-04-16T11:20:19.167Z,52.95
2023-04-16T11:22:55.430Z,52.85
2023-04-16T11:25:22.747Z,52.46
2023-04-16T11:27:50.574Z,52.39
2023-04-16T11:30:17.701Z,52.51
2023-04-16T11:32:45.261Z,52.64
2023-04-16T11:35:17.408Z,53.91
2023-04-16T11:37:44.970Z,53.54
2023-04-16T11:40:12.660Z,51.49
2023-04-16T11:42:41.328Z,51.72
2023-04-16T11:45:10.041Z,51.78
2023-04-16T11:47:47.522Z,51.59
2023-04-16T11:50:17.183Z,52.99
2023-04-16T11:52:43.921Z,53.49
2023-04-16T11:55:10.699Z,51.96
2023-04-16T11:57:38.529Z,51.51
2023-04-16T12:00:07.442Z,52.92
2023-04-16T12:02:44.432Z,52.93
2023-04-16T12:05:38.815Z,52.14
2023-04-16T12:08:07.868Z,52.54
2023-04-16T12:10:38.392Z,51.82
2023-04-16T12:13:16.221Z,52.28
2023-04-16T12:15:47.009Z,53.62
2023-04-16T12:18:15.007Z,52.22
2023-04-16T12:20:43.088Z,51.61
2023-04-16T12:23:25.271Z,53.10
2023-04-16T12:25:52.369Z,52.13
2023-04-16T12:28:41.060Z,51.56
2023-04-16T12:31:10.789Z,50.64
2023-04-16T12:33:37.638Z,51.31
2023-04-16T12:36:18.605Z,49.91
2023-04-16T12:38:45.598Z,50.85
2023-04-16T12:41:12.228Z,51.61
2023-04-16T12:43:39.228Z,52.42
2023-04-16T12:46:07.004Z,54.64
2023-04-16T12:48:33.842Z,54.14
2023-04-16T12:51:00.433Z,52.18
2023-04-16T12:53:28.516Z,50.73
2023-04-16T12:56:01.189Z,51.67
2023-04-16T12:58:27.882Z,52.32
2023-04-16T13:00:54.575Z,51.09
2023-04-16T13:03:23.519Z,50.26
2023-04-16T13:05:57.945Z,50.52
2023-04-16T13:08:27.952Z,50.36
2023-04-16T13:10:54.762Z,50.10
2023-04-16T13:13:21.936Z,49.57
2023-04-16T13:15:55.237Z,49.28
2023-04-16T13:18:23.105Z,50.99
2023-04-16T13:20:50.265Z,51.55
2023-04-16T13:23:17.465Z,51.96
2023-04-16T13:25:44.394Z,50.54
2023-04-16T13:28:12.930Z,50.86
2023-04-16T13:30:40.962Z,50.46
2023-04-16T13:33:08.381Z,49.97
2023-04-16T13:35:35.806Z,49.01
2023-04-16T13:38:02.515Z,48.71
2023-04-16T13:40:29.903Z,48.84
2023-04-16T13:42:56.903Z,49.64
2023-04-16T13:45:23.563Z,48.30
2023-04-16T13:47:54.668Z,49.32
2023-04-16T13:50:22.288Z,50.64
2023-04-16T13:52:52.062Z,51.96
2023-04-16T13:55:22.020Z,51.49
2023-04-16T13:57:53.538Z,51.20
2023-04-16T14:00:42.767Z,49.99
2023-04-16T14:03:09.888Z,49.00
2023-04-16T14:05:39.606Z,48.46
2023-04-16T14:08:06.976Z,48.90
2023-04-16T14:10:33.816Z,50.12
2023-04-16T14:13:03.783Z,50.41
2023-04-16T14:15:31.354Z,51.02
2023-04-16T14:17:58.186Z,50.38
2023-04-16T14:20:24.929Z,50.44
2023-04-16T14:22:54.025Z,50.10
2023-04-16T14:25:22.096Z,49.31
2023-04-16T14:27:51.520Z,49.71
2023-04-16T14:30:22.372Z,49.12
2023-04-16T14:32:55.247Z,48.44
2023-04-16T14:35:22.034Z,49.13
2023-04-16T14:37:49.138Z,48.66
2023-04-16T14:40:16.883Z,48.87
2023-04-16T14:42:45.694Z,49.76
2023-04-16T14:45:12.681Z,49.77
2023-04-16T14:47:45.904Z,50.69
2023-04-16T14:50:13.172Z,49.44
2023-04-16T14:52:39.853Z,49.31
2023-04-16T14:55:07.107Z,48.90
2023-04-16T14:57:34.107Z,48.80
2023-04-16T15:00:01.276Z,50.29
2023-04-16T15:02:28.227Z,50.22
2023-04-16T15:04:58.540Z,50.13
2023-04-16T15:07:26.517Z,50.30
2023-04-16T15:09:53.193Z,49.61
2023-04-16T15:12:20.097Z,49.57
2023-04-16T15:14:46.684Z,50.28
2023-04-16T15:17:13.655Z,50.41
2023-04-16T15:19:40.630Z,50.04
2023-04-16T15:22:07.245Z,49.69
2023-04-16T15:24:33.859Z,50.52
2023-04-16T15:27:02.357Z,49.50
2023-04-16T15:29:29.077Z,50.13
2023-04-16T15:31:55.936Z,49.67
2023-04-16T15:34:27.364Z,49.65
2023-04-16T15:36:54.379Z,49.85
2023-04-16T15:39:21.144Z,50.25
2023-04-16T15:42:00.527Z,50.40
2023-04-16T15:44:28.383Z,51.14
2023-04-16T15:47:06.579Z,50.17
2023-04-16T15:49:35.057Z,49.61
2023-04-16T15:52:02.079Z,49.93
2023-04-16T15:54:29.644Z,51.15
2023-04-16T15:56:56.868Z,51.25
2023-04-16T15:59:23.456Z,51.25
2023-04-16T16:01:51.334Z,52.06
2023-04-16T16:04:19.032Z,52.80
2023-04-16T16:06:46.656Z,50.77
2023-04-16T16:09:14.663Z,49.85
2023-04-16T16:11:42.077Z,48.86
2023-04-16T16:14:08.670Z,50.52
2023-04-16T16:16:35.600Z,50.71
2023-04-16T16:19:02.374Z,50.26
2023-04-16T16:21:32.667Z,51.33
2023-04-16T16:23:59.468Z,51.67
2023-04-16T16:26:26.288Z,51.23
2023-04-16T16:28:53.331Z,51.09
2023-04-16T16:31:20.459Z,51.28
2023-04-16T16:33:47.829Z,51.20
2023-04-16T16:36:24.785Z,50.66
2023-04-16T16:38:55.640Z,50.63
2023-04-16T16:41:22.785Z,51.47
2023-04-16T16:43:50.555Z,51.65
2023-04-16T16:46:17.221Z,51.09
2023-04-16T16:48:44.407Z,51.39
2023-04-16T16:51:13.070Z,51.04
2023-04-16T16:53:40.012Z,50.43
2023-04-16T16:56:07.710Z,50.24
2023-04-16T16:58:34.341Z,50.71
2023-04-16T17:01:01.507Z,51.12
2023-04-16T17:03:28.308Z,51.39
2023-04-16T17:05:55.422Z,50.54
2023-04-16T17:08:22.131Z,51.20
2023-04-16T17:10:48.675Z,50.96
2023-04-16T17:13:19.658Z,51.98
2023-04-16T17:15:46.958Z,53.84
2023-04-16T17:18:14.192Z,54.07
2023-04-16T17:20:41.018Z,53.78
2023-04-16T17:23:07.810Z,53.20
2023-04-16T17:25:34.542Z,52.38
2023-04-16T17:28:01.519Z,52.90
2023-04-16T17:30:30.215Z,52.02
2023-04-16T17:32:56.992Z,51.73
2023-04-16T17:35:24.460Z,51.05
2023-04-16T17:37:51.651Z,52.72
2023-04-16T17:40:21.250Z,52.43
2023-04-16T17:42:48.852Z,52.91
2023-04-16T17:45:15.865Z,53.17
2023-04-16T17:47:44.426Z,52.42
2023-04-16T17:50:11.917Z,52.63
2023-04-16T17:52:41.803Z,53.61
2023-04-16T17:55:09.012Z,53.59
2023-04-16T17:57:35.617Z,53.40
2023-04-16T18:00:12.600Z,52.94
2023-04-16T18:02:43.287Z,52.43
2023-04-16T18:05:10.399Z,52.72
2023-04-16T18:07:39.137Z,52.58
2023-04-16T18:10:07.057Z,52.22
2023-04-16T18:12:33.774Z,51.85
2023-04-16T18:15:00.721Z,51.82
2023-04-16T18:17:27.564Z,51.70
2023-04-16T18:19:54.428Z,51.15
2023-04-16T18:22:21.049Z,51.15
2023-04-16T18:24:47.985Z,51.08
2023-04-16T18:27:14.651Z,50.83
2023-04-16T18:29:45.396Z,52.27
2023-04-16T18:32:12.515Z,50.82
2023-04-16T18:34:39.505Z,50.81
2023-04-16T18:37:07.014Z,51.53
2023-04-16T18:39:34.020Z,51.66
2023-04-16T18:42:03.931Z,52.40
2023-04-16T18:44:33.653Z,52.81
2023-04-16T18:47:00.766Z,54.03
2023-04-16T18:49:27.506Z,52.67
2023-04-16T18:51:57.180Z,52.16
2023-04-16T18:54:23.825Z,52.45
2023-04-16T18:56:50.429Z,51.98
2023-04-16T18:59:17.096Z,53.13
2023-04-16T19:01:43.783Z,53.86
2023-04-16T19:04:11.015Z,53.60
2023-04-16T19:06:38.029Z,53.10
2023-04-16T19:09:04.578Z,53.06
2023-04-16T19:11:31.237Z,52.98
2023-04-16T19:13:58.119Z,53.78
2023-04-16T19:16:24.825Z,53.99
2023-04-16T19:18:51.486Z,54.52
2023-04-16T19:21:18.598Z,54.56
2023-04-16T19:23:45.369Z,53.99
2023-04-16T19:26:12.202Z,54.74
2023-04-16T19:28:39.888Z,54.60
2023-04-16T19:31:06.814Z,55.16
2023-04-16T19:33:33.434Z,55.05
2023-04-16T19:36:00.594Z,54.63
2023-04-16T19:38:27.650Z,54.78
2023-04-16T19:40:55.501Z,55.28
2023-04-16T19:43:22.131Z,55.89
2023-04-16T19:45:53.676Z,55.90
2023-04-16T19:48:21.416Z,54.68
2023-04-16T19:50:56.313Z,52.62
2023-04-16T19:53:24.435Z,53.62
2023-04-16T19:55:51.005Z,54.14
2023-04-16T19:58:17.726Z,53.86
2023-04-16T20:00:44.507Z,53.30
2023-04-16T20:03:11.354Z,54.51
2023-04-16T20:05:40.993Z,55.04
2023-04-16T20:08:07.618Z,54.61
2023-04-16T20:10:34.418Z,54.04
2023-04-16T20:13:01.259Z,55.40
2023-04-16T20:15:27.909Z,54.27
2023-04-16T20:17:56.110Z,53.82
2023-04-16T20:20:23.723Z,54.38
2023-04-16T20:22:51.492Z,53.52
2023-04-16T20:25:21.598Z,53.72
2023-04-16T20:27:51.548Z,53.94
2023-04-16T20:30:29.106Z,53.05
2023-04-16T20:32:56.496Z,53.29
2023-04-16T20:35:23.261Z,53.53
2023-04-16T20:37:49.879Z,53.50
2023-04-16T20:40:16.534Z,54.06
2023-04-16T20:42:46.106Z,53.85
2023-04-16T20:45:12.995Z,53.67
2023-04-16T20:47:39.668Z,53.71
2023-04-16T20:50:07.303Z,53.14
2023-04-16T20:52:34.011Z,52.83
2023-04-16T20:55:03.235Z,53.99
2023-04-16T20:57:31.933Z,54.83
2023-04-16T20:59:58.674Z,53.71
2023-04-16T21:02:25.635Z,53.17
2023-04-16T21:04:52.533Z,52.71
2023-04-16T21:07:19.201Z,53.15
2023-04-16T21:09:45.914Z,54.38
2023-04-16T21:12:12.514Z,54.39
2023-04-16T21:14:39.078Z,54.67
2023-04-16T21:17:05.843Z,53.63
2023-04-16T21:19:33.004Z,54.03
2023-04-16T21:21:59.653Z,54.56
2023-04-16T21:24:26.201Z,53.50
2023-04-16T21:26:52.879Z,52.85
2023-04-16T21:29:19.464Z,52.45
2023-04-16T21:31:46.794Z,52.49
2023-04-16T21:34:13.532Z,53.31
2023-04-16T21:36:40.094Z,54.02
2023-04-16T21:39:06.992Z,53.61
2023-04-16T21:41:33.801Z,54.75
2023-04-16T21:44:00.644Z,55.28
2023-04-16T21:46:27.852Z,55.38
2023-04-16T21:48:55.907Z,54.96
2023-04-16T21:51:29.141Z,54.37
2023-04-16T21:53:57.700Z,52.97
2023-04-16T21:56:25.022Z,53.92
2023-04-16T21:58:51.735Z,52.81
2023-04-16T22:01:18.462Z,54.11
2023-04-16T22:03:47.014Z,53.44
2023-04-16T22:06:14.204Z,55.46
2023-04-16T22:08:40.856Z,56.96
2023-04-16T22:11:07.535Z,56.72
2023-04-16T22:13:36.518Z,56.34
2023-04-16T22:16:03.798Z,57.45
2023-04-16T22:18:33.560Z,58.28
2023-04-16T22:21:00.757Z,57.36
2023-04-16T22:23:27.491Z,56.08
2023-04-16T22:25:56.130Z,56.36
2023-04-16T22:28:23.121Z,57.09
2023-04-16T22:30:50.910Z,57.26
2023-04-16T22:33:18.467Z,57.43
2023-04-16T22:35:45.569Z,58.95
2023-04-16T22:38:12.192Z,56.96
2023-04-16T22:40:38.724Z,57.06
2023-04-16T22:43:05.748Z,59.25
2023-04-16T22:45:32.305Z,57.25
2023-04-16T22:47:59.084Z,57.81
2023-04-16T22:50:25.800Z,56.40
2023-04-16T22:52:52.429Z,56.88
2023-04-16T22:55:19.176Z,57.81
2023-04-16T22:57:45.972Z,57.15
2023-04-16T23:00:16.762Z,55.19
2023-04-16T23:02:44.339Z,56.44
2023-04-16T23:05:11.768Z,56.61
2023-04-16T23:07:38.809Z,57.90
2023-04-16T23:10:06.228Z,56.61
2023-04-16T23:12:33.018Z,56.44
2023-04-16T23:15:00.565Z,57.65
2023-04-16T23:17:28.042Z,57.55
2023-04-16T23:19:54.844Z,58.45
2023-04-16T23:22:21.508Z,58.89
2023-04-16T23:24:48.111Z,58.94
2023-04-16T23:27:14.859Z,59.84
2023-04-16T23:29:41.545Z,58.67
2023-04-16T23:32:08.175Z,57.94
2023-04-16T23:34:35.167Z,56.27
2023-04-16T23:37:01.808Z,57.58
2023-04-16T23:39:28.475Z,59.39
2023-04-16T23:41:55.636Z,58.82
2023-04-16T23:44:22.542Z,57.86
2023-04-16T23:46:49.144Z,58.38
2023-04-16T23:49:17.172Z,59.05
2023-04-16T23:51:43.880Z,57.91
2023-04-16T23:54:10.650Z,59.15
2023-04-16T23:56:37.714Z,58.26
2023-04-16T23:59:04.615Z,57.64
